sensor_id;sensor_type;location;lat;lon;timestamp;P1;durP1;ratioP1;P2;durP2;ratioP2
53409;SDS011;66590;50.734;4.246;2023-08-06T00:00:53;7.32;;;3.80;;
53409;SDS011;66590;50.734;4.246;2023-08-06T00:03:20;7.93;;;3.42;;
53409;SDS011;66590;50.734;4.246;2023-08-06T00:05:47;5.53;;;3.30;;
53409;SDS011;66590;50.734;4.246;2023-08-06T00:08:14;7.90;;;3.90;;
53409;SDS011;66590;50.734;4.246;2023-08-06T00:10:41;5.80;;;3.40;;
53409;SDS011;66590;50.734;4.246;2023-08-06T00:13:08;6.57;;;4.00;;
53409;SDS011;66590;50.734;4.246;2023-08-06T00:15:36;9.40;;;4.22;;
53409;SDS011;66590;50.734;4.246;2023-08-06T00:18:03;7.40;;;3.85;;
53409;SDS011;66590;50.734;4.246;2023-08-06T00:20:31;8.05;;;4.38;;
53409;SDS011;66590;50.734;4.246;2023-08-06T00:22:58;11.18;;;4.70;;
53409;SDS011;66590;50.734;4.246;2023-08-06T00:25:25;11.57;;;4.82;;
53409;SDS011;66590;50.734;4.246;2023-08-06T00:27:51;14.40;;;6.07;;
53409;SDS011;66590;50.734;4.246;2023-08-06T00:30:18;10.63;;;5.45;;
53409;SDS011;66590;50.734;4.246;2023-08-06T00:32:47;10.45;;;5.40;;
53409;SDS011;66590;50.734;4.246;2023-08-06T00:35:14;9.55;;;5.85;;
53409;SDS011;66590;50.734;4.246;2023-08-06T00:37:41;7.45;;;5.72;;
53409;SDS011;66590;50.734;4.246;2023-08-06T00:40:08;10.95;;;5.70;;
53409;SDS011;66590;50.734;4.246;2023-08-06T00:42:35;10.73;;;6.38;;
53409;SDS011;66590;50.734;4.246;2023-08-06T00:45:02;14.00;;;7.38;;
53409;SDS011;66590;50.734;4.246;2023-08-06T00:47:30;11.30;;;6.72;;
53409;SDS011;66590;50.734;4.246;2023-08-06T00:49:58;16.00;;;7.93;;
53409;SDS011;66590;50.734;4.246;2023-08-06T00:52:26;14.20;;;8.60;;
53409;SDS011;66590;50.734;4.246;2023-08-06T00:54:54;14.85;;;8.82;;
53409;SDS011;66590;50.734;4.246;2023-08-06T00:57:21;12.88;;;9.40;;
53409;SDS011;66590;50.734;4.246;2023-08-06T00:59:50;14.27;;;9.93;;
53409;SDS011;66590;50.734;4.246;2023-08-06T01:02:18;16.48;;;10.73;;
53409;SDS011;66590;50.734;4.246;2023-08-06T01:04:45;13.32;;;10.23;;
53409;SDS011;66590;50.734;4.246;2023-08-06T01:07:16;13.75;;;10.65;;
53409;SDS011;66590;50.734;4.246;2023-08-06T01:10:00;16.45;;;10.93;;
53409;SDS011;66590;50.734;4.246;2023-08-06T01:12:45;19.25;;;10.68;;
53409;SDS011;66590;50.734;4.246;2023-08-06T01:17:46;16.75;;;11.48;;
53409;SDS011;66590;50.734;4.246;2023-08-06T01:20:13;15.15;;;10.30;;
53409;SDS011;66590;50.734;4.246;2023-08-06T01:22:42;14.07;;;10.15;;
53409;SDS011;66590;50.734;4.246;2023-08-06T01:25:08;22.02;;;10.68;;
53409;SDS011;66590;50.734;4.246;2023-08-06T01:27:38;13.63;;;8.88;;
53409;SDS011;66590;50.734;4.246;2023-08-06T01:30:13;12.80;;;9.02;;
53409;SDS011;66590;50.734;4.246;2023-08-06T01:32:44;15.18;;;8.80;;
53409;SDS011;66590;50.734;4.246;2023-08-06T01:35:15;12.18;;;5.78;;
53409;SDS011;66590;50.734;4.246;2023-08-06T01:37:45;11.43;;;6.05;;
53409;SDS011;66590;50.734;4.246;2023-08-06T01:40:13;12.10;;;6.22;;
53409;SDS011;66590;50.734;4.246;2023-08-06T01:42:40;9.18;;;6.22;;
53409;SDS011;66590;50.734;4.246;2023-08-06T01:45:07;8.88;;;5.30;;
53409;SDS011;66590;50.734;4.246;2023-08-06T01:47:35;7.03;;;4.13;;
53409;SDS011;66590;50.734;4.246;2023-08-06T01:50:03;10.07;;;5.07;;
53409;SDS011;66590;50.734;4.246;2023-08-06T01:52:30;9.27;;;3.75;;
53409;SDS011;66590;50.734;4.246;2023-08-06T01:54:59;4.85;;;2.47;;
53409;SDS011;66590;50.734;4.246;2023-08-06T01:57:26;5.35;;;2.67;;
53409;SDS011;66590;50.734;4.246;2023-08-06T01:59:59;7.93;;;2.78;;
53409;SDS011;66590;50.734;4.246;2023-08-06T02:02:26;10.48;;;3.03;;
53409;SDS011;66590;50.734;4.246;2023-08-06T02:04:56;6.75;;;2.95;;
53409;SDS011;66590;50.734;4.246;2023-08-06T02:07:29;6.82;;;3.30;;
53409;SDS011;66590;50.734;4.246;2023-08-06T02:09:56;7.28;;;3.33;;
53409;SDS011;66590;50.734;4.246;2023-08-06T02:12:25;8.48;;;3.25;;
53409;SDS011;66590;50.734;4.246;2023-08-06T02:14:58;7.38;;;3.03;;
53409;SDS011;66590;50.734;4.246;2023-08-06T02:17:25;7.22;;;3.72;;
53409;SDS011;66590;50.734;4.246;2023-08-06T02:19:58;5.70;;;2.60;;
53409;SDS011;66590;50.734;4.246;2023-08-06T02:22:25;6.45;;;2.35;;
53409;SDS011;66590;50.734;4.246;2023-08-06T02:25:00;5.90;;;2.90;;
53409;SDS011;66590;50.734;4.246;2023-08-06T02:27:27;3.75;;;2.13;;
53409;SDS011;66590;50.734;4.246;2023-08-06T02:30:00;5.30;;;2.22;;
53409;SDS011;66590;50.734;4.246;2023-08-06T02:32:33;5.03;;;2.30;;
53409;SDS011;66590;50.734;4.246;2023-08-06T02:35:00;6.18;;;2.20;;
53409;SDS011;66590;50.734;4.246;2023-08-06T02:37:34;3.70;;;2.70;;
53409;SDS011;66590;50.734;4.246;2023-08-06T02:40:03;6.10;;;2.88;;
53409;SDS011;66590;50.734;4.246;2023-08-06T02:42:30;5.90;;;3.97;;
53409;SDS011;66590;50.734;4.246;2023-08-06T02:45:05;10.75;;;4.03;;
53409;SDS011;66590;50.734;4.246;2023-08-06T02:47:32;7.20;;;4.53;;
53409;SDS011;66590;50.734;4.246;2023-08-06T02:50:07;11.90;;;4.47;;
53409;SDS011;66590;50.734;4.246;2023-08-06T02:52:34;16.10;;;5.63;;
53409;SDS011;66590;50.734;4.246;2023-08-06T02:55:02;10.30;;;6.32;;
53409;SDS011;66590;50.734;4.246;2023-08-06T02:57:37;10.30;;;6.57;;
53409;SDS011;66590;50.734;4.246;2023-08-06T03:00:04;10.85;;;6.53;;
53409;SDS011;66590;50.734;4.246;2023-08-06T03:02:38;12.18;;;6.40;;
53409;SDS011;66590;50.734;4.246;2023-08-06T03:05:05;9.88;;;6.03;;
53409;SDS011;66590;50.734;4.246;2023-08-06T03:07:39;11.17;;;6.07;;
53409;SDS011;66590;50.734;4.246;2023-08-06T03:10:08;9.10;;;6.53;;
53409;SDS011;66590;50.734;4.246;2023-08-06T03:12:42;10.23;;;5.90;;
53409;SDS011;66590;50.734;4.246;2023-08-06T03:15:09;11.27;;;7.45;;
53409;SDS011;66590;50.734;4.246;2023-08-06T03:17:43;15.47;;;9.17;;
53409;SDS011;66590;50.734;4.246;2023-08-06T03:20:10;13.95;;;9.52;;
53409;SDS011;66590;50.734;4.246;2023-08-06T03:22:37;11.90;;;7.47;;
53409;SDS011;66590;50.734;4.246;2023-08-06T03:25:13;9.32;;;5.53;;
53409;SDS011;66590;50.734;4.246;2023-08-06T03:30:19;4.90;;;3.15;;
53409;SDS011;66590;50.734;4.246;2023-08-06T03:32:52;3.75;;;3.00;;
53409;SDS011;66590;50.734;4.246;2023-08-06T03:35:26;2.67;;;2.45;;
53409;SDS011;66590;50.734;4.246;2023-08-06T03:37:53;4.55;;;2.47;;
53409;SDS011;66590;50.734;4.246;2023-08-06T03:40:36;3.75;;;2.83;;
53409;SDS011;66590;50.734;4.246;2023-08-06T03:43:09;5.43;;;2.67;;
53409;SDS011;66590;50.734;4.246;2023-08-06T03:45:42;4.65;;;2.58;;
53409;SDS011;66590;50.734;4.246;2023-08-06T03:48:09;6.72;;;3.55;;
53409;SDS011;66590;50.734;4.246;2023-08-06T03:50:37;5.25;;;3.38;;
53409;SDS011;66590;50.734;4.246;2023-08-06T03:53:10;7.30;;;4.00;;
53409;SDS011;66590;50.734;4.246;2023-08-06T03:55:39;4.93;;;3.72;;
53409;SDS011;66590;50.734;4.246;2023-08-06T03:58:06;6.75;;;3.72;;
53409;SDS011;66590;50.734;4.246;2023-08-06T04:00:39;6.53;;;4.03;;
53409;SDS011;66590;50.734;4.246;2023-08-06T04:03:06;9.25;;;4.95;;
53409;SDS011;66590;50.734;4.246;2023-08-06T04:05:39;7.03;;;4.20;;
53409;SDS011;66590;50.734;4.246;2023-08-06T04:08:06;9.70;;;4.63;;
53409;SDS011;66590;50.734;4.246;2023-08-06T04:10:41;6.47;;;3.90;;
53409;SDS011;66590;50.734;4.246;2023-08-06T04:15:47;7.30;;;4.18;;
53409;SDS011;66590;50.734;4.246;2023-08-06T04:18:20;8.70;;;4.65;;
53409;SDS011;66590;50.734;4.246;2023-08-06T04:20:54;5.10;;;4.43;;
53409;SDS011;66590;50.734;4.246;2023-08-06T04:23:21;7.20;;;5.03;;
53409;SDS011;66590;50.734;4.246;2023-08-06T04:25:57;7.53;;;5.40;;
53409;SDS011;66590;50.734;4.246;2023-08-06T04:28:24;7.55;;;4.93;;
53409;SDS011;66590;50.734;4.246;2023-08-06T04:30:58;8.18;;;4.50;;
53409;SDS011;66590;50.734;4.246;2023-08-06T04:33:32;6.67;;;5.50;;
53409;SDS011;66590;50.734;4.246;2023-08-06T04:36:06;7.03;;;4.70;;
53409;SDS011;66590;50.734;4.246;2023-08-06T04:38:33;7.43;;;5.03;;
53409;SDS011;66590;50.734;4.246;2023-08-06T04:41:09;8.07;;;5.65;;
53409;SDS011;66590;50.734;4.246;2023-08-06T04:43:36;8.40;;;5.40;;
53409;SDS011;66590;50.734;4.246;2023-08-06T04:46:09;11.15;;;5.75;;
53409;SDS011;66590;50.734;4.246;2023-08-06T04:48:36;9.18;;;5.97;;
53409;SDS011;66590;50.734;4.246;2023-08-06T04:51:10;8.52;;;5.82;;
53409;SDS011;66590;50.734;4.246;2023-08-06T04:53:37;12.35;;;6.13;;
53409;SDS011;66590;50.734;4.246;2023-08-06T04:56:12;9.23;;;5.53;;
53409;SDS011;66590;50.734;4.246;2023-08-06T04:58:39;11.50;;;6.53;;
53409;SDS011;66590;50.734;4.246;2023-08-06T05:01:12;11.80;;;6.45;;
53409;SDS011;66590;50.734;4.246;2023-08-06T05:03:46;10.18;;;7.13;;
53409;SDS011;66590;50.734;4.246;2023-08-06T05:06:20;14.77;;;7.15;;
53409;SDS011;66590;50.734;4.246;2023-08-06T05:08:47;13.48;;;6.88;;
53409;SDS011;66590;50.734;4.246;2023-08-06T05:11:22;16.50;;;7.35;;
53409;SDS011;66590;50.734;4.246;2023-08-06T05:13:49;11.30;;;6.07;;
53409;SDS011;66590;50.734;4.246;2023-08-06T05:16:23;10.95;;;5.63;;
53409;SDS011;66590;50.734;4.246;2023-08-06T05:18:50;11.25;;;6.13;;
53409;SDS011;66590;50.734;4.246;2023-08-06T05:21:23;11.00;;;5.60;;
53409;SDS011;66590;50.734;4.246;2023-08-06T05:23:50;12.57;;;5.00;;
53409;SDS011;66590;50.734;4.246;2023-08-06T05:26:17;8.93;;;4.63;;
53409;SDS011;66590;50.734;4.246;2023-08-06T05:28:53;11.23;;;3.90;;
53409;SDS011;66590;50.734;4.246;2023-08-06T05:31:20;9.13;;;4.72;;
53409;SDS011;66590;50.734;4.246;2023-08-06T05:33:47;14.15;;;4.75;;
53409;SDS011;66590;50.734;4.246;2023-08-06T05:36:20;12.10;;;4.47;;
53409;SDS011;66590;50.734;4.246;2023-08-06T05:38:47;8.82;;;4.60;;
53409;SDS011;66590;50.734;4.246;2023-08-06T05:41:14;14.20;;;4.75;;
53409;SDS011;66590;50.734;4.246;2023-08-06T05:43:47;11.52;;;4.43;;
53409;SDS011;66590;50.734;4.246;2023-08-06T05:46:16;10.55;;;4.45;;
53409;SDS011;66590;50.734;4.246;2023-08-06T05:48:43;12.48;;;3.95;;
53409;SDS011;66590;50.734;4.246;2023-08-06T05:51:16;9.18;;;3.92;;
53409;SDS011;66590;50.734;4.246;2023-08-06T05:53:43;16.35;;;5.00;;
53409;SDS011;66590;50.734;4.246;2023-08-06T05:56:16;11.00;;;4.07;;
53409;SDS011;66590;50.734;4.246;2023-08-06T05:58:43;13.05;;;4.72;;
53409;SDS011;66590;50.734;4.246;2023-08-06T06:01:10;8.10;;;4.10;;
53409;SDS011;66590;50.734;4.246;2023-08-06T06:03:45;10.73;;;4.53;;
53409;SDS011;66590;50.734;4.246;2023-08-06T06:06:12;13.23;;;4.55;;
53409;SDS011;66590;50.734;4.246;2023-08-06T06:08:42;17.83;;;4.20;;
53409;SDS011;66590;50.734;4.246;2023-08-06T06:11:15;12.50;;;4.72;;
53409;SDS011;66590;50.734;4.246;2023-08-06T06:13:42;8.65;;;4.32;;
53409;SDS011;66590;50.734;4.246;2023-08-06T06:16:16;17.35;;;5.00;;
53409;SDS011;66590;50.734;4.246;2023-08-06T06:18:45;8.88;;;4.55;;
53409;SDS011;66590;50.734;4.246;2023-08-06T06:21:18;12.57;;;4.97;;
53409;SDS011;66590;50.734;4.246;2023-08-06T06:23:45;15.43;;;5.07;;
53409;SDS011;66590;50.734;4.246;2023-08-06T06:26:19;10.93;;;4.85;;
53409;SDS011;66590;50.734;4.246;2023-08-06T06:28:46;10.48;;;4.25;;
53409;SDS011;66590;50.734;4.246;2023-08-06T06:31:21;13.60;;;4.97;;
53409;SDS011;66590;50.734;4.246;2023-08-06T06:33:49;13.70;;;5.45;;
53409;SDS011;66590;50.734;4.246;2023-08-06T06:36:16;15.18;;;4.90;;
53409;SDS011;66590;50.734;4.246;2023-08-06T06:38:49;14.55;;;5.47;;
53409;SDS011;66590;50.734;4.246;2023-08-06T06:41:16;9.73;;;4.90;;
53409;SDS011;66590;50.734;4.246;2023-08-06T06:43:44;15.68;;;5.75;;
53409;SDS011;66590;50.734;4.246;2023-08-06T06:46:11;11.65;;;4.53;;
53409;SDS011;66590;50.734;4.246;2023-08-06T06:48:38;16.45;;;5.18;;
53409;SDS011;66590;50.734;4.246;2023-08-06T06:51:06;10.10;;;4.38;;
53409;SDS011;66590;50.734;4.246;2023-08-06T06:53:33;15.20;;;4.43;;
53409;SDS011;66590;50.734;4.246;2023-08-06T06:56:01;8.50;;;3.10;;
53409;SDS011;66590;50.734;4.246;2023-08-06T06:58:29;10.30;;;3.05;;
53409;SDS011;66590;50.734;4.246;2023-08-06T07:00:56;10.00;;;2.35;;
53409;SDS011;66590;50.734;4.246;2023-08-06T07:03:23;6.03;;;2.08;;
53409;SDS011;66590;50.734;4.246;2023-08-06T07:05:50;7.15;;;2.50;;
53409;SDS011;66590;50.734;4.246;2023-08-06T07:08:18;11.27;;;2.83;;
53409;SDS011;66590;50.734;4.246;2023-08-06T07:10:45;10.75;;;2.70;;
53409;SDS011;66590;50.734;4.246;2023-08-06T07:13:12;7.75;;;2.00;;
53409;SDS011;66590;50.734;4.246;2023-08-06T07:15:39;7.80;;;1.67;;
53409;SDS011;66590;50.734;4.246;2023-08-06T07:18:06;5.10;;;1.85;;
53409;SDS011;66590;50.734;4.246;2023-08-06T07:20:33;8.80;;;2.75;;
53409;SDS011;66590;50.734;4.246;2023-08-06T07:23:00;6.72;;;1.50;;
53409;SDS011;66590;50.734;4.246;2023-08-06T07:25:28;7.45;;;1.92;;
53409;SDS011;66590;50.734;4.246;2023-08-06T07:27:55;10.07;;;1.80;;
53409;SDS011;66590;50.734;4.246;2023-08-06T07:30:22;8.80;;;2.55;;
53409;SDS011;66590;50.734;4.246;2023-08-06T07:32:50;11.70;;;2.45;;
53409;SDS011;66590;50.734;4.246;2023-08-06T07:35:17;10.45;;;1.88;;
53409;SDS011;66590;50.734;4.246;2023-08-06T07:37:43;7.60;;;2.42;;
53409;SDS011;66590;50.734;4.246;2023-08-06T07:40:11;13.48;;;2.38;;
53409;SDS011;66590;50.734;4.246;2023-08-06T07:42:39;11.80;;;2.92;;
53409;SDS011;66590;50.734;4.246;2023-08-06T07:45:07;12.02;;;2.55;;
53409;SDS011;66590;50.734;4.246;2023-08-06T07:47:35;10.93;;;2.30;;
53409;SDS011;66590;50.734;4.246;2023-08-06T07:50:02;9.93;;;3.03;;
53409;SDS011;66590;50.734;4.246;2023-08-06T07:52:29;8.18;;;2.22;;
53409;SDS011;66590;50.734;4.246;2023-08-06T07:54:56;5.93;;;2.20;;
53409;SDS011;66590;50.734;4.246;2023-08-06T07:57:23;7.20;;;2.13;;
53409;SDS011;66590;50.734;4.246;2023-08-06T07:59:52;7.93;;;2.78;;
53409;SDS011;66590;50.734;4.246;2023-08-06T08:02:19;12.38;;;2.53;;
53409;SDS011;66590;50.734;4.246;2023-08-06T08:04:46;9.65;;;3.20;;
53409;SDS011;66590;50.734;4.246;2023-08-06T08:07:13;10.88;;;2.33;;
53409;SDS011;66590;50.734;4.246;2023-08-06T08:09:40;6.93;;;2.20;;
53409;SDS011;66590;50.734;4.246;2023-08-06T08:12:07;11.05;;;2.85;;
53409;SDS011;66590;50.734;4.246;2023-08-06T08:14:34;10.45;;;2.45;;
53409;SDS011;66590;50.734;4.246;2023-08-06T08:17:03;5.95;;;1.98;;
53409;SDS011;66590;50.734;4.246;2023-08-06T08:19:30;8.27;;;2.40;;
53409;SDS011;66590;50.734;4.246;2023-08-06T08:21:57;8.63;;;2.10;;
53409;SDS011;66590;50.734;4.246;2023-08-06T08:24:25;5.30;;;1.90;;
53409;SDS011;66590;50.734;4.246;2023-08-06T08:26:52;10.25;;;2.30;;
53409;SDS011;66590;50.734;4.246;2023-08-06T08:29:19;6.93;;;1.90;;
53409;SDS011;66590;50.734;4.246;2023-08-06T08:31:47;3.05;;;1.48;;
53409;SDS011;66590;50.734;4.246;2023-08-06T08:34:15;6.85;;;1.90;;
53409;SDS011;66590;50.734;4.246;2023-08-06T08:36:43;4.40;;;1.50;;
53409;SDS011;66590;50.734;4.246;2023-08-06T08:39:10;6.07;;;1.95;;
53409;SDS011;66590;50.734;4.246;2023-08-06T08:41:37;10.50;;;2.35;;
53409;SDS011;66590;50.734;4.246;2023-08-06T08:44:06;8.45;;;2.53;;
53409;SDS011;66590;50.734;4.246;2023-08-06T08:46:35;7.43;;;2.80;;
53409;SDS011;66590;50.734;4.246;2023-08-06T08:49:03;8.32;;;1.98;;
53409;SDS011;66590;50.734;4.246;2023-08-06T08:51:32;8.30;;;2.30;;
53409;SDS011;66590;50.734;4.246;2023-08-06T08:53:59;8.02;;;1.83;;
53409;SDS011;66590;50.734;4.246;2023-08-06T08:56:30;7.07;;;2.17;;
53409;SDS011;66590;50.734;4.246;2023-08-06T08:58:57;6.97;;;1.83;;
53409;SDS011;66590;50.734;4.246;2023-08-06T09:01:24;5.40;;;2.30;;
53409;SDS011;66590;50.734;4.246;2023-08-06T09:03:53;6.65;;;2.05;;
53409;SDS011;66590;50.734;4.246;2023-08-06T09:06:22;10.50;;;2.47;;
53409;SDS011;66590;50.734;4.246;2023-08-06T09:08:56;9.52;;;2.40;;
53409;SDS011;66590;50.734;4.246;2023-08-06T09:11:27;9.88;;;2.65;;
53409;SDS011;66590;50.734;4.246;2023-08-06T09:13:55;6.55;;;2.60;;
53409;SDS011;66590;50.734;4.246;2023-08-06T09:16:23;6.40;;;2.67;;
53409;SDS011;66590;50.734;4.246;2023-08-06T09:18:50;9.95;;;2.75;;
53409;SDS011;66590;50.734;4.246;2023-08-06T09:21:17;8.70;;;2.63;;
53409;SDS011;66590;50.734;4.246;2023-08-06T09:23:44;7.95;;;2.65;;
53409;SDS011;66590;50.734;4.246;2023-08-06T09:26:13;9.65;;;2.80;;
53409;SDS011;66590;50.734;4.246;2023-08-06T09:28:42;5.78;;;2.25;;
53409;SDS011;66590;50.734;4.246;2023-08-06T09:31:09;12.75;;;2.92;;
53409;SDS011;66590;50.734;4.246;2023-08-06T09:33:37;8.82;;;2.55;;
53409;SDS011;66590;50.734;4.246;2023-08-06T09:36:07;8.68;;;2.47;;
53409;SDS011;66590;50.734;4.246;2023-08-06T09:38:37;6.10;;;2.60;;
53409;SDS011;66590;50.734;4.246;2023-08-06T09:41:05;9.63;;;3.13;;
53409;SDS011;66590;50.734;4.246;2023-08-06T09:43:40;8.55;;;2.75;;
53409;SDS011;66590;50.734;4.246;2023-08-06T09:46:11;7.07;;;2.42;;
53409;SDS011;66590;50.734;4.246;2023-08-06T09:48:39;13.93;;;3.30;;
53409;SDS011;66590;50.734;4.246;2023-08-06T09:51:06;9.55;;;2.90;;
53409;SDS011;66590;50.734;4.246;2023-08-06T09:53:35;13.10;;;3.65;;
53409;SDS011;66590;50.734;4.246;2023-08-06T09:56:04;6.82;;;2.72;;
53409;SDS011;66590;50.734;4.246;2023-08-06T09:58:32;10.32;;;2.38;;
53409;SDS011;66590;50.734;4.246;2023-08-06T10:01:01;11.38;;;3.22;;
53409;SDS011;66590;50.734;4.246;2023-08-06T10:03:31;9.25;;;2.58;;
53409;SDS011;66590;50.734;4.246;2023-08-06T10:06:00;6.68;;;2.30;;
53409;SDS011;66590;50.734;4.246;2023-08-06T10:08:30;5.18;;;1.90;;
53409;SDS011;66590;50.734;4.246;2023-08-06T10:10:57;8.32;;;2.88;;
53409;SDS011;66590;50.734;4.246;2023-08-06T10:13:25;11.00;;;2.47;;
53409;SDS011;66590;50.734;4.246;2023-08-06T10:15:52;6.97;;;1.85;;
53409;SDS011;66590;50.734;4.246;2023-08-06T10:18:21;5.22;;;1.63;;
53409;SDS011;66590;50.734;4.246;2023-08-06T10:20:48;6.88;;;2.08;;
53409;SDS011;66590;50.734;4.246;2023-08-06T10:23:15;6.55;;;1.55;;
53409;SDS011;66590;50.734;4.246;2023-08-06T10:25:42;10.35;;;2.60;;
53409;SDS011;66590;50.734;4.246;2023-08-06T10:28:10;6.93;;;2.13;;
53409;SDS011;66590;50.734;4.246;2023-08-06T10:30:44;13.20;;;2.63;;
53409;SDS011;66590;50.734;4.246;2023-08-06T10:33:11;7.28;;;1.85;;
53409;SDS011;66590;50.734;4.246;2023-08-06T10:35:41;5.60;;;2.50;;
53409;SDS011;66590;50.734;4.246;2023-08-06T10:38:11;8.80;;;2.30;;
53409;SDS011;66590;50.734;4.246;2023-08-06T10:40:39;6.13;;;2.15;;
53409;SDS011;66590;50.734;4.246;2023-08-06T10:43:06;6.78;;;2.90;;
53409;SDS011;66590;50.734;4.246;2023-08-06T10:45:34;7.03;;;2.53;;
53409;SDS011;66590;50.734;4.246;2023-08-06T10:48:02;7.65;;;2.67;;
53409;SDS011;66590;50.734;4.246;2023-08-06T10:50:29;6.50;;;1.85;;
53409;SDS011;66590;50.734;4.246;2023-08-06T10:52:58;8.98;;;2.28;;
53409;SDS011;66590;50.734;4.246;2023-08-06T10:55:31;11.73;;;2.42;;
53409;SDS011;66590;50.734;4.246;2023-08-06T10:57:58;5.75;;;2.30;;
53409;SDS011;66590;50.734;4.246;2023-08-06T11:00:25;8.13;;;2.65;;
53409;SDS011;66590;50.734;4.246;2023-08-06T11:02:52;9.02;;;2.25;;
53409;SDS011;66590;50.734;4.246;2023-08-06T11:05:20;9.80;;;2.72;;
53409;SDS011;66590;50.734;4.246;2023-08-06T11:07:47;6.18;;;2.35;;
53409;SDS011;66590;50.734;4.246;2023-08-06T11:10:16;7.63;;;2.35;;
53409;SDS011;66590;50.734;4.246;2023-08-06T11:12:43;11.32;;;3.60;;
53409;SDS011;66590;50.734;4.246;2023-08-06T11:15:10;11.02;;;2.60;;
53409;SDS011;66590;50.734;4.246;2023-08-06T11:17:37;8.45;;;2.60;;
53409;SDS011;66590;50.734;4.246;2023-08-06T11:20:07;5.63;;;2.05;;
53409;SDS011;66590;50.734;4.246;2023-08-06T11:22:35;7.97;;;2.30;;
53409;SDS011;66590;50.734;4.246;2023-08-06T11:25:03;18.83;;;9.27;;
53409;SDS011;66590;50.734;4.246;2023-08-06T11:27:33;31.98;;;15.93;;
53409;SDS011;66590;50.734;4.246;2023-08-06T11:30:00;64.95;;;28.90;;
53409;SDS011;66590;50.734;4.246;2023-08-06T11:32:27;12.63;;;4.35;;
53409;SDS011;66590;50.734;4.246;2023-08-06T11:34:54;22.35;;;8.18;;
53409;SDS011;66590;50.734;4.246;2023-08-06T11:37:22;9.38;;;4.20;;
53409;SDS011;66590;50.734;4.246;2023-08-06T11:39:49;10.77;;;3.97;;
53409;SDS011;66590;50.734;4.246;2023-08-06T11:42:16;11.52;;;2.42;;
53409;SDS011;66590;50.734;4.246;2023-08-06T11:44:45;9.23;;;2.90;;
53409;SDS011;66590;50.734;4.246;2023-08-06T11:47:13;7.13;;;1.92;;
53409;SDS011;66590;50.734;4.246;2023-08-06T11:49:42;7.95;;;1.80;;
53409;SDS011;66590;50.734;4.246;2023-08-06T11:52:10;5.85;;;1.77;;
53409;SDS011;66590;50.734;4.246;2023-08-06T11:54:40;7.40;;;1.98;;
53409;SDS011;66590;50.734;4.246;2023-08-06T11:57:07;6.18;;;2.30;;
53409;SDS011;66590;50.734;4.246;2023-08-06T11:59:34;5.57;;;2.42;;
53409;SDS011;66590;50.734;4.246;2023-08-06T12:02:04;8.10;;;2.90;;
53409;SDS011;66590;50.734;4.246;2023-08-06T12:07:28;12.02;;;3.15;;
53409;SDS011;66590;50.734;4.246;2023-08-06T12:09:56;6.13;;;2.40;;
53409;SDS011;66590;50.734;4.246;2023-08-06T12:12:23;7.30;;;2.53;;
53409;SDS011;66590;50.734;4.246;2023-08-06T12:14:50;7.30;;;2.63;;
53409;SDS011;66590;50.734;4.246;2023-08-06T12:17:18;6.72;;;2.63;;
53409;SDS011;66590;50.734;4.246;2023-08-06T12:19:45;7.93;;;3.10;;
53409;SDS011;66590;50.734;4.246;2023-08-06T12:22:13;7.50;;;3.03;;
53409;SDS011;66590;50.734;4.246;2023-08-06T12:24:40;9.90;;;2.60;;
53409;SDS011;66590;50.734;4.246;2023-08-06T12:27:07;10.85;;;3.05;;
53409;SDS011;66590;50.734;4.246;2023-08-06T12:29:34;10.85;;;3.03;;
53409;SDS011;66590;50.734;4.246;2023-08-06T12:32:02;8.18;;;2.88;;
53409;SDS011;66590;50.734;4.246;2023-08-06T12:34:31;5.55;;;2.70;;
53409;SDS011;66590;50.734;4.246;2023-08-06T12:37:16;3.80;;;2.35;;
53409;SDS011;66590;50.734;4.246;2023-08-06T12:39:43;5.97;;;2.70;;
53409;SDS011;66590;50.734;4.246;2023-08-06T12:42:10;7.18;;;1.90;;
53409;SDS011;66590;50.734;4.246;2023-08-06T12:44:37;6.45;;;2.90;;
53409;SDS011;66590;50.734;4.246;2023-08-06T12:47:04;5.50;;;1.85;;
53409;SDS011;66590;50.734;4.246;2023-08-06T12:49:33;5.63;;;2.70;;
53409;SDS011;66590;50.734;4.246;2023-08-06T12:52:00;7.32;;;2.90;;
53409;SDS011;66590;50.734;4.246;2023-08-06T12:54:27;8.02;;;3.60;;
53409;SDS011;66590;50.734;4.246;2023-08-06T12:56:54;9.60;;;3.05;;
53409;SDS011;66590;50.734;4.246;2023-08-06T12:59:22;8.63;;;3.20;;
53409;SDS011;66590;50.734;4.246;2023-08-06T13:01:49;10.45;;;3.25;;
53409;SDS011;66590;50.734;4.246;2023-08-06T13:04:16;7.30;;;3.53;;
53409;SDS011;66590;50.734;4.246;2023-08-06T13:06:49;6.13;;;2.90;;
53409;SDS011;66590;50.734;4.246;2023-08-06T13:09:16;8.55;;;3.05;;
53409;SDS011;66590;50.734;4.246;2023-08-06T13:11:43;11.30;;;3.40;;
53409;SDS011;66590;50.734;4.246;2023-08-06T13:14:11;9.60;;;3.72;;
53409;SDS011;66590;50.734;4.246;2023-08-06T13:16:41;7.30;;;2.85;;
53409;SDS011;66590;50.734;4.246;2023-08-06T13:19:09;6.82;;;3.08;;
53409;SDS011;66590;50.734;4.246;2023-08-06T13:24:28;5.30;;;2.42;;
53409;SDS011;66590;50.734;4.246;2023-08-06T13:26:56;9.02;;;2.72;;
53409;SDS011;66590;50.734;4.246;2023-08-06T13:29:23;5.90;;;2.33;;
53409;SDS011;66590;50.734;4.246;2023-08-06T13:31:51;10.77;;;2.25;;
53409;SDS011;66590;50.734;4.246;2023-08-06T13:34:18;8.05;;;1.92;;
53409;SDS011;66590;50.734;4.246;2023-08-06T13:36:45;5.07;;;1.50;;
53409;SDS011;66590;50.734;4.246;2023-08-06T13:39:13;4.35;;;1.80;;
53409;SDS011;66590;50.734;4.246;2023-08-06T13:41:41;5.63;;;1.30;;
53409;SDS011;66590;50.734;4.246;2023-08-06T13:44:08;7.97;;;1.67;;
53409;SDS011;66590;50.734;4.246;2023-08-06T13:46:34;5.82;;;1.50;;
53409;SDS011;66590;50.734;4.246;2023-08-06T13:49:01;4.22;;;1.73;;
53409;SDS011;66590;50.734;4.246;2023-08-06T13:51:28;7.47;;;2.00;;
53409;SDS011;66590;50.734;4.246;2023-08-06T13:53:55;5.88;;;1.92;;
53409;SDS011;66590;50.734;4.246;2023-08-06T13:56:24;10.48;;;2.05;;
53409;SDS011;66590;50.734;4.246;2023-08-06T13:58:51;8.82;;;2.53;;
53409;SDS011;66590;50.734;4.246;2023-08-06T14:01:18;11.60;;;2.25;;
53409;SDS011;66590;50.734;4.246;2023-08-06T14:03:45;5.78;;;1.83;;
53409;SDS011;66590;50.734;4.246;2023-08-06T14:06:12;5.78;;;2.03;;
53409;SDS011;66590;50.734;4.246;2023-08-06T14:08:39;2.90;;;1.30;;
53409;SDS011;66590;50.734;4.246;2023-08-06T14:11:06;4.88;;;1.60;;
53409;SDS011;66590;50.734;4.246;2023-08-06T14:13:35;3.22;;;1.55;;
53409;SDS011;66590;50.734;4.246;2023-08-06T14:16:02;5.97;;;1.73;;
53409;SDS011;66590;50.734;4.246;2023-08-06T14:18:32;6.35;;;2.10;;
53409;SDS011;66590;50.734;4.246;2023-08-06T14:20:59;6.47;;;1.80;;
53409;SDS011;66590;50.734;4.246;2023-08-06T14:23:26;8.50;;;1.88;;
53409;SDS011;66590;50.734;4.246;2023-08-06T14:25:53;5.43;;;1.75;;
53409;SDS011;66590;50.734;4.246;2023-08-06T14:28:20;6.35;;;2.05;;
53409;SDS011;66590;50.734;4.246;2023-08-06T14:30:48;13.50;;;2.05;;
53409;SDS011;66590;50.734;4.246;2023-08-06T14:33:15;6.35;;;1.90;;
53409;SDS011;66590;50.734;4.246;2023-08-06T14:35:53;9.30;;;1.88;;
53409;SDS011;66590;50.734;4.246;2023-08-06T14:38:20;6.47;;;2.30;;
53409;SDS011;66590;50.734;4.246;2023-08-06T14:40:49;8.02;;;2.45;;
53409;SDS011;66590;50.734;4.246;2023-08-06T14:43:16;7.32;;;2.60;;
53409;SDS011;66590;50.734;4.246;2023-08-06T14:45:44;6.75;;;2.13;;
53409;SDS011;66590;50.734;4.246;2023-08-06T14:48:12;8.23;;;2.15;;
53409;SDS011;66590;50.734;4.246;2023-08-06T14:50:39;8.73;;;2.30;;
53409;SDS011;66590;50.734;4.246;2023-08-06T14:53:06;8.77;;;1.80;;
53409;SDS011;66590;50.734;4.246;2023-08-06T14:55:34;5.18;;;2.13;;
53409;SDS011;66590;50.734;4.246;2023-08-06T14:58:00;6.97;;;2.58;;
53409;SDS011;66590;50.734;4.246;2023-08-06T15:00:28;7.50;;;3.33;;
53409;SDS011;66590;50.734;4.246;2023-08-06T15:02:55;9.85;;;2.70;;
53409;SDS011;66590;50.734;4.246;2023-08-06T15:05:24;8.80;;;2.45;;